Healy, Kansas
Current Conditions -  °F | °C
As of 11:54 AM on Saturday 20 Dec 2014 (Local Time) from KGCK Reporting Station
Clear Clear  
Wind Chill: 37°   Ceiling: Unl
Heat Index: 42°   Visibility: 10mi
Dew Point: 32°   Wind: 8mph
Humidity: 67%   Direction: 220°SW
Pressure: 30.05"   Gusts: NA
Location:  38.6°N, 100.62°W
Report Text: KGCK 201754Z 22007KT 10SM CLR 06/00 A3005 RMK AO2 SLP191 60000 I6000 T00560000 10056 21056 58005
Loading
Personal Weather Stations






























Interactive Weather Map New forecast layout! Learn more

10-Day Weather Forecast

Advertisements
Track Severe Weather on mobile